غليزان, الجزائر

09:57 PM CET on هاêè 24, 2015 (GMT +0100)
Ghriss | | Change Station
CLOSE
Current Station
Airport
Location: Ghriss,
Elevation: 1686 ft
Nearby Weather Stations

Elev 1686 ft 35.21 °N, 0.15 °E | Updated 57 minutes ago

Thunderstorm
عاصفة رعدية
61 °F
Feels Like 61 °F
N
5
ريح متغير ريح from NNW

هذا اليوم
High -- | Low -- °F
--% Chance of Precip.
Yesterday
High -- | Low -- °F
Precip. -- في
5:46 AM 8:02 PM
الهلال الأول, 42% visible
الضغط 29.89 في
وضوح الرؤية 3.7 أميال
سحابات Few 2000 ft
غائم كلياً 3300 ft
نقطة الندى 57 °F
الرطوبة 88%
Rainfall 0.00 في
عمق الثلج Not available.
الأشعة فوق البنفسجية 0 out of 12
Pollen Not available.
جودة الهواء Not available.
Flu Activity Not available.
METAR DAOV 242000Z 33004KT 6000 TS FEW020CB BKN033 16/14 Q1012

More Conditions Fewer Conditions

الضغط 29.89 في
وضوح الرؤية 3.7 أميال
سحابات Few 2000 ft
غائم كلياً 3300 ft
نقطة الندى 57 °F
الرطوبة 88%
Rainfall 0.00 في
عمق الثلج Not available.
الأشعة فوق البنفسجية 0 out of 12
Pollen Not available.
جودة الهواء Not available.
Flu Activity Not available.
METAR DAOV 242000Z 33004KT 6000 TS FEW020CB BKN033 16/14 Q1012

More Conditions Fewer Conditions

10-Day Weather Forecast

Almanac

علم الفلك

May. 24, 2015 Rise Set
Actual Time
Civil Twilight
Nautical Twilight
Astronomical Twilight
قمر
Length Of Visible Light
طول الیوم
Tomorrow will be .
, % of the Moon is Illuminated

Today's Extremes

Country Highs Country Lows

Community

WunderPhotos

Upload Photos

1,823,862 photos uploaded!

WunderBlogs® & News

Nearby

جودة الهواء

  جودة الهواء AQ Index Pollutant
Not available.

عمق الثلج

Station Depth Elevation

Earthquake Activity

City Distance Mag. Time & Date
Minimum magnitude displayed is 2.5.

Coastal Water Temperatures

مكان درجات الحرارة

Stations

Nearby Weather Stations

Station Location الحرارة رياح باردة نقطة الندى الرطوبة ريح Precip. Elev تحديث Type